Time,TemperatureF,DewpointF,PressureIn,WindDirection,WindDirectionDegrees,WindSpeedMPH,WindSpeedGustMPH,Humidity,HourlyPrecipIn,Conditions,Clouds,dailyrainin,SoftwareType,DateUTC
2013-02-05 00:00:00,23.0,20.3,29.82,SSE,164,3.0,4.0,89,0.00,,,0.00,WeatherCatV1.10B1784,2013-02-05 06:00:00,
2013-02-05 00:05:00,23.2,20.4,29.81,SSE,167,3.0,3.0,89,0.00,,,0.00,WeatherCatV1.10B1784,2013-02-05 06:05:00,
2013-02-05 00:10:00,23.3,20.5,29.81,SE,127,0.0,5.0,89,0.00,,,0.00,WeatherCatV1.10B1784,2013-02-05 06:10:00,
2013-02-05 00:15:00,23.4,20.6,29.81,SSE,151,2.0,7.0,89,0.00,,,0.00,WeatherCatV1.10B1784,2013-02-05 06:15:00,
2013-02-05 00:20:00,23.6,20.8,29.81,ESE,123,4.0,6.0,89,0.00,,,0.00,WeatherCatV1.10B1784,2013-02-05 06:20:00,
2013-02-05 00:25:00,23.8,21.0,29.81,SE,143,2.0,5.0,89,0.00,,,0.00,WeatherCatV1.10B1784,2013-02-05 06:25:00,
2013-02-05 00:30:00,23.9,21.1,29.80,South,174,3.0,5.0,89,0.00,,,0.00,WeatherCatV1.10B1784,2013-02-05 06:30:00,
2013-02-05 00:35:00,24.0,21.2,29.80,ESE,122,4.0,4.0,89,0.00,,,0.00,WeatherCatV1.10B1784,2013-02-05 06:35:00,
2013-02-05 00:40:00,24.1,21.3,29.80,SSW,209,6.0,7.0,89,0.00,,,0.00,WeatherCatV1.10B1784,2013-02-05 06:40:00,
2013-02-05 00:45:00,24.2,21.4,29.80,SE,131,2.0,7.0,89,0.00,,,0.00,WeatherCatV1.10B1784,2013-02-05 06:45:00,
2013-02-05 00:50:00,24.3,21.5,29.80,South,169,3.0,5.0,89,0.00,,,0.00,WeatherCatV1.10B1784,2013-02-05 06:50:00,
2013-02-05 00:55:00,24.4,21.6,29.79,South,176,3.0,3.0,89,0.00,,,0.00,WeatherCatV1.10B1784,2013-02-05 06:55:00,
2013-02-05 01:00:00,24.4,21.6,29.79,SSE,155,6.0,6.0,89,0.00,,,0.00,WeatherCatV1.10B1784,2013-02-05 07:00:00,
2013-02-05 01:05:00,24.6,21.8,29.78,SW,217,2.0,4.0,89,0.00,,,0.00,WeatherCatV1.10B1784,2013-02-05 07:05:00,
2013-02-05 01:10:00,24.7,21.9,29.79,South,169,0.0,2.0,89,0.00,,,0.00,WeatherCatV1.10B1784,2013-02-05 07:10:00,
2013-02-05 01:15:00,24.8,22.0,29.79,SSW,199,3.0,4.0,89,0.00,,,0.00,WeatherCatV1.10B1784,2013-02-05 07:15:00,
2013-02-05 01:20:00,24.8,22.0,29.79,South,175,1.0,3.0,89,0.00,,,0.00,WeatherCatV1.10B1784,2013-02-05 07:20:00,
2013-02-05 01:25:00,24.8,21.8,29.79,SW,216,0.0,2.0,88,0.00,,,0.00,WeatherCatV1.10B1784,2013-02-05 07:25:00,
2013-02-05 01:30:00,24.8,22.0,29.79,SSW,201,1.0,3.0,89,0.00,,,0.00,WeatherCatV1.10B1784,2013-02-05 07:30:00,
2013-02-05 01:35:00,24.8,22.0,29.79,South,176,2.0,4.0,89,0.00,,,0.00,WeatherCatV1.10B1784,2013-02-05 07:35:00,
2013-02-05 01:40:00,24.8,22.0,29.79,South,182,2.0,2.0,89,0.00,,,0.00,WeatherCatV1.10B1784,2013-02-05 07:40:00,
2013-02-05 01:45:00,24.8,22.0,29.79,SSE,167,1.0,1.0,89,0.00,,,0.00,WeatherCatV1.10B1784,2013-02-05 07:45:00,
2013-02-05 01:50:00,24.7,21.9,29.78,South,180,3.0,4.0,89,0.00,,,0.00,WeatherCatV1.10B1784,2013-02-05 07:50:00,
2013-02-05 01:55:00,24.7,21.9,29.78,SSE,157,3.0,4.0,89,0.00,,,0.00,WeatherCatV1.10B1784,2013-02-05 07:55:00,
2013-02-05 02:00:00,24.6,21.8,29.78,SE,124,0.0,1.0,89,0.00,,,0.00,WeatherCatV1.10B1784,2013-02-05 08:00:00,
2013-02-05 02:05:00,24.7,22.2,29.78,SSE,153,0.0,4.0,90,0.00,,,0.00,WeatherCatV1.10B1784,2013-02-05 08:05:00,
2013-02-05 02:10:00,25.0,22.5,29.78,SSE,166,0.0,2.0,90,0.00,,,0.00,WeatherCatV1.10B1784,2013-02-05 08:10:00,
2013-02-05 02:15:00,25.3,22.8,29.78,SSE,166,0.0,3.0,90,0.00,,,0.00,WeatherCatV1.10B1784,2013-02-05 08:15:00,
2013-02-05 02:20:00,25.6,23.1,29.78,SSE,168,0.0,3.0,90,0.00,,,0.00,WeatherCatV1.10B1784,2013-02-05 08:20:00,
2013-02-05 02:25:00,25.8,23.0,29.78,SSE,168,0.0,1.0,89,0.00,,,0.00,WeatherCatV1.10B1784,2013-02-05 08:25:00,
2013-02-05 02:30:00,26.0,23.2,29.78,SE,135,0.0,0.0,89,0.00,,,0.00,WeatherCatV1.10B1784,2013-02-05 08:30:00,
2013-02-05 02:35:00,26.1,23.3,29.78,SE,135,0.0,1.0,89,0.00,,,0.00,WeatherCatV1.10B1784,2013-02-05 08:35:00,
2013-02-05 02:40:00,26.1,23.0,29.79,SE,135,0.0,1.0,88,0.00,,,0.00,WeatherCatV1.10B1784,2013-02-05 08:40:00,
2013-02-05 02:45:00,26.1,23.0,29.78,SE,135,2.0,2.0,88,0.00,,,0.00,WeatherCatV1.10B1784,2013-02-05 08:45:00,
2013-02-05 02:50:00,26.2,23.1,29.78,SE,135,0.0,1.0,88,0.00,,,0.00,WeatherCatV1.10B1784,2013-02-05 08:50:00,
2013-02-05 02:55:00,26.1,23.0,29.78,SE,135,2.0,2.0,88,0.00,,,0.00,WeatherCatV1.10B1784,2013-02-05 08:55:00,
2013-02-05 03:00:00,26.1,23.0,29.78,SE,135,0.0,1.0,88,0.00,,,0.00,WeatherCatV1.10B1784,2013-02-05 09:00:00,
2013-02-05 03:05:00,25.9,22.8,29.78,SW,218,0.0,2.0,88,0.00,,,0.00,WeatherCatV1.10B1784,2013-02-05 09:05:00,
2013-02-05 03:10:00,25.8,22.7,29.79,SSE,157,0.0,4.0,88,0.00,,,0.00,WeatherCatV1.10B1784,2013-02-05 09:10:00,
2013-02-05 03:15:00,25.6,22.5,29.79,SSE,157,0.0,1.0,88,0.00,,,0.00,WeatherCatV1.10B1784,2013-02-05 09:15:00,
2013-02-05 03:20:00,25.6,22.5,29.78,WSW,241,1.0,2.0,88,0.00,,,0.00,WeatherCatV1.10B1784,2013-02-05 09:20:00,
2013-02-05 03:25:00,25.6,22.5,29.78,SW,226,0.0,2.0,88,0.00,,,0.00,WeatherCatV1.10B1784,2013-02-05 09:25:00,
2013-02-05 03:30:00,25.5,22.7,29.78,SW,226,0.0,0.0,89,0.00,,,0.00,WeatherCatV1.10B1784,2013-02-05 09:30:00,
2013-02-05 03:35:00,25.6,22.8,29.77,SW,226,0.0,2.0,89,0.00,,,0.00,WeatherCatV1.10B1784,2013-02-05 09:35:00,
2013-02-05 03:40:00,25.7,22.9,29.78,SW,226,1.0,2.0,89,0.00,,,0.00,WeatherCatV1.10B1784,2013-02-05 09:40:00,
2013-02-05 03:45:00,26.0,23.5,29.77,SW,219,0.0,2.0,90,0.00,,,0.00,WeatherCatV1.10B1784,2013-02-05 09:45:00,
2013-02-05 03:50:00,26.5,24.0,29.77,WSW,239,0.0,3.0,90,0.00,,,0.00,WeatherCatV1.10B1784,2013-02-05 09:50:00,
2013-02-05 03:55:00,27.1,24.6,29.78,NW,316,0.0,2.0,90,0.00,,,0.00,WeatherCatV1.10B1784,2013-02-05 09:55:00,
2013-02-05 04:00:00,27.5,24.7,29.77,NW,316,0.0,1.0,89,0.00,,,0.00,WeatherCatV1.10B1784,2013-02-05 10:00:00,
2013-02-05 04:05:00,27.6,24.8,29.77,NW,316,0.0,1.0,89,0.00,,,0.00,WeatherCatV1.10B1784,2013-02-05 10:05:00,
2013-02-05 04:10:00,27.8,25.0,29.77,NW,316,0.0,1.0,89,0.00,,,0.00,WeatherCatV1.10B1784,2013-02-05 10:10:00,
2013-02-05 04:15:00,28.0,25.2,29.77,WNW,301,0.0,2.0,89,0.00,,,0.00,WeatherCatV1.10B1784,2013-02-05 10:15:00,
2013-02-05 04:20:00,28.1,25.0,29.77,WNW,301,0.0,1.0,88,0.00,,,0.00,WeatherCatV1.10B1784,2013-02-05 10:20:00,
2013-02-05 04:25:00,28.3,25.5,29.77,WNW,301,0.0,2.0,89,0.00,,,0.00,WeatherCatV1.10B1784,2013-02-05 10:25:00,
2013-02-05 04:30:00,28.7,25.6,29.77,West,266,2.0,4.0,88,0.00,,,0.00,WeatherCatV1.10B1784,2013-02-05 10:30:00,
2013-02-05 04:35:00,28.9,25.8,29.77,WNW,284,1.0,4.0,88,0.00,,,0.00,WeatherCatV1.10B1784,2013-02-05 10:35:00,
2013-02-05 04:40:00,29.2,26.1,29.78,West,272,4.0,4.0,88,0.00,,,0.00,WeatherCatV1.10B1784,2013-02-05 10:40:00,
2013-02-05 04:45:00,29.2,25.8,29.78,WNW,301,1.0,2.0,87,0.00,,,0.00,WeatherCatV1.10B1784,2013-02-05 10:45:00,
2013-02-05 04:50:00,29.2,25.8,29.78,WNW,294,2.0,2.0,87,0.00,,,0.00,WeatherCatV1.10B1784,2013-02-05 10:50:00,
2013-02-05 04:55:00,29.2,25.8,29.78,WNW,282,1.0,4.0,87,0.00,,,0.00,WeatherCatV1.10B1784,2013-02-05 10:55:00,
2013-02-05 05:00:00,29.3,25.9,29.79,WSW,254,0.0,3.0,87,0.00,,,0.00,WeatherCatV1.10B1784,2013-02-05 11:00:00,
2013-02-05 05:05:00,29.4,26.0,29.78,WNW,301,2.0,4.0,87,0.00,,,0.00,WeatherCatV1.10B1784,2013-02-05 11:05:00,
2013-02-05 05:10:00,29.6,26.2,29.79,West,270,0.0,5.0,87,0.00,,,0.00,WeatherCatV1.10B1784,2013-02-05 11:10:00,
2013-02-05 05:15:00,29.7,26.3,29.80,WNW,296,2.0,3.0,87,0.00,,,0.00,WeatherCatV1.10B1784,2013-02-05 11:15:00,
2013-02-05 05:20:00,29.7,26.3,29.80,NW,307,1.0,5.0,87,0.00,,,0.00,WeatherCatV1.10B1784,2013-02-05 11:20:00,
2013-02-05 05:25:00,29.9,26.5,29.80,West,279,2.0,3.0,87,0.00,,,0.00,WeatherCatV1.10B1784,2013-02-05 11:25:00,
2013-02-05 05:30:00,30.2,26.8,29.80,WNW,289,1.0,6.0,87,0.00,,,0.00,WeatherCatV1.10B1784,2013-02-05 11:30:00,
2013-02-05 05:35:00,30.6,26.9,29.80,WNW,293,1.0,1.0,86,0.00,,,0.00,WeatherCatV1.10B1784,2013-02-05 11:35:00,
2013-02-05 05:40:00,30.8,27.1,29.80,West,278,0.0,4.0,86,0.00,,,0.00,WeatherCatV1.10B1784,2013-02-05 11:40:00,
2013-02-05 05:45:00,31.0,27.0,29.80,WNW,284,1.0,4.0,85,0.00,,,0.00,WeatherCatV1.10B1784,2013-02-05 11:45:00,
2013-02-05 05:50:00,31.0,27.0,29.80,West,274,1.0,3.0,85,0.00,,,0.00,WeatherCatV1.10B1784,2013-02-05 11:50:00,
2013-02-05 05:55:00,30.9,26.9,29.81,WNW,293,3.0,7.0,85,0.00,,,0.00,WeatherCatV1.10B1784,2013-02-05 11:55:00,
2013-02-05 06:00:00,30.9,26.9,29.81,NW,313,3.0,8.0,85,0.00,,,0.00,WeatherCatV1.10B1784,2013-02-05 12:00:00,
2013-02-05 06:05:00,30.8,26.8,29.81,WNW,292,2.0,5.0,85,0.00,,,0.00,WeatherCatV1.10B1784,2013-02-05 12:05:00,
2013-02-05 06:10:00,30.7,26.7,29.81,West,272,4.0,4.0,85,0.00,,,0.00,WeatherCatV1.10B1784,2013-02-05 12:10:00,
2013-02-05 06:15:00,30.6,26.6,29.81,NW,307,3.0,4.0,85,0.00,,,0.00,WeatherCatV1.10B1784,2013-02-05 12:15:00,
2013-02-05 06:20:00,30.4,26.4,29.81,NW,318,2.0,7.0,85,0.00,,,0.00,WeatherCatV1.10B1784,2013-02-05 12:20:00,
2013-02-05 06:25:00,30.3,26.3,29.81,WNW,293,5.0,7.0,85,0.00,,,0.00,WeatherCatV1.10B1784,2013-02-05 12:25:00,
2013-02-05 06:30:00,30.2,26.5,29.82,WNW,297,1.0,6.0,86,0.00,,,0.00,WeatherCatV1.10B1784,2013-02-05 12:30:00,
2013-02-05 06:35:00,30.0,26.3,29.82,NW,313,3.0,6.0,86,0.00,,,0.00,WeatherCatV1.10B1784,2013-02-05 12:35:00,
2013-02-05 06:40:00,29.8,26.1,29.83,WNW,295,5.0,7.0,86,0.00,,,0.00,WeatherCatV1.10B1784,2013-02-05 12:40:00,
2013-02-05 06:45:00,29.7,26.0,29.83,WNW,291,2.0,7.0,86,0.00,,,0.00,WeatherCatV1.10B1784,2013-02-05 12:45:00,
2013-02-05 06:50:00,29.7,26.0,29.83,WNW,303,4.0,6.0,86,0.00,,,0.00,WeatherCatV1.10B1784,2013-02-05 12:50:00,
2013-02-05 06:55:00,29.7,26.3,29.83,WNW,301,2.0,4.0,87,0.00,,,0.00,WeatherCatV1.10B1784,2013-02-05 12:55:00,
2013-02-05 07:00:00,30.0,26.6,29.83,NW,316,0.0,7.0,87,0.00,,,0.00,WeatherCatV1.10B1784,2013-02-05 13:00:00,
2013-02-05 07:05:00,30.1,26.7,29.83,West,270,2.0,3.0,87,0.00,,,0.00,WeatherCatV1.10B1784,2013-02-05 13:05:00,
2013-02-05 07:10:00,30.2,26.8,29.84,West,276,0.0,8.0,87,0.00,,,0.00,WeatherCatV1.10B1784,2013-02-05 13:10:00,
2013-02-05 07:15:00,30.4,27.0,29.84,North,350,3.0,4.0,87,0.00,,,0.00,WeatherCatV1.10B1784,2013-02-05 13:15:00,
2013-02-05 07:20:00,30.5,27.1,29.85,West,280,0.0,5.0,87,0.00,,,0.00,WeatherCatV1.10B1784,2013-02-05 13:20:00,
2013-02-05 07:25:00,30.4,27.0,29.85,WNW,301,1.0,6.0,87,0.00,,,0.00,WeatherCatV1.10B1784,2013-02-05 13:25:00,
2013-02-05 07:30:00,30.4,27.0,29.86,WNW,291,0.0,4.0,87,0.00,,,0.00,WeatherCatV1.10B1784,2013-02-05 13:30:00,
2013-02-05 07:35:00,30.4,27.0,29.86,NNW,328,6.0,6.0,87,0.00,,,0.00,WeatherCatV1.10B1784,2013-02-05 13:35:00,
2013-02-05 07:40:00,30.5,27.1,29.86,NW,308,4.0,6.0,87,0.00,,,0.00,WeatherCatV1.10B1784,2013-02-05 13:40:00,
2013-02-05 07:45:00,30.5,27.1,29.86,NW,326,2.0,4.0,87,0.00,,,0.00,WeatherCatV1.10B1784,2013-02-05 13:45:00,
2013-02-05 07:50:00,30.6,27.2,29.87,NW,309,1.0,4.0,87,0.00,,,0.00,WeatherCatV1.10B1784,2013-02-05 13:50:00,
2013-02-05 07:55:00,30.7,27.3,29.87,West,278,2.0,9.0,87,0.00,,,0.00,WeatherCatV1.10B1784,2013-02-05 13:55:00,
2013-02-05 08:00:00,30.9,27.5,29.87,NW,308,6.0,6.0,87,0.00,,,0.00,WeatherCatV1.10B1784,2013-02-05 14:00:00,
2013-02-05 08:05:00,31.1,27.4,29.88,NNW,328,3.0,5.0,86,0.00,,,0.00,WeatherCatV1.10B1784,2013-02-05 14:05:00,
2013-02-05 08:10:00,31.1,27.4,29.88,NW,318,4.0,5.0,86,0.00,,,0.00,WeatherCatV1.10B1784,2013-02-05 14:10:00,
2013-02-05 08:15:00,31.3,27.6,29.89,NNW,333,3.0,8.0,86,0.00,,,0.00,WeatherCatV1.10B1784,2013-02-05 14:15:00,
2013-02-05 08:20:00,31.4,27.7,29.89,NNW,341,5.0,7.0,86,0.00,,,0.00,WeatherCatV1.10B1784,2013-02-05 14:20:00,
2013-02-05 08:25:00,31.6,27.9,29.89,WNW,294,5.0,7.0,86,0.00,,,0.00,WeatherCatV1.10B1784,2013-02-05 14:25:00,
2013-02-05 08:30:00,31.7,27.7,29.90,WNW,286,9.0,10.0,85,0.00,,,0.00,WeatherCatV1.10B1784,2013-02-05 14:30:00,
2013-02-05 08:35:00,32.0,28.0,29.90,West,280,3.0,7.0,85,0.00,,,0.00,WeatherCatV1.10B1784,2013-02-05 14:35:00,
2013-02-05 08:40:00,32.3,28.3,29.91,NNW,334,2.0,9.0,85,0.00,,,0.00,WeatherCatV1.10B1784,2013-02-05 14:40:00,
2013-02-05 08:45:00,32.5,28.5,29.91,West,268,3.0,6.0,85,0.00,,,0.00,WeatherCatV1.10B1784,2013-02-05 14:45:00,
2013-02-05 08:50:00,32.8,28.5,29.91,WNW,288,3.0,10.0,84,0.00,,,0.00,WeatherCatV1.10B1784,2013-02-05 14:50:00,
2013-02-05 08:55:00,33.0,28.7,29.91,NW,311,4.0,11.0,84,0.00,,,0.00,WeatherCatV1.10B1784,2013-02-05 14:55:00,
2013-02-05 09:00:00,33.2,28.9,29.91,WNW,291,4.0,11.0,84,0.00,,,0.00,WeatherCatV1.10B1784,2013-02-05 15:00:00,
2013-02-05 09:05:00,33.3,28.7,29.91,NNW,329,2.0,8.0,83,0.00,,,0.00,WeatherCatV1.10B1784,2013-02-05 15:05:00,
2013-02-05 09:10:00,33.5,28.9,29.92,NNW,329,7.0,7.0,83,0.00,,,0.00,WeatherCatV1.10B1784,2013-02-05 15:10:00,
2013-02-05 09:15:00,33.7,29.1,29.92,WNW,300,4.0,10.0,83,0.00,,,0.00,WeatherCatV1.10B1784,2013-02-05 15:15:00,
2013-02-05 09:20:00,33.9,29.0,29.92,WNW,299,3.0,6.0,82,0.00,,,0.00,WeatherCatV1.10B1784,2013-02-05 15:20:00,
2013-02-05 09:25:00,34.1,29.2,29.92,WNW,282,0.0,6.0,82,0.00,,,0.00,WeatherCatV1.10B1784,2013-02-05 15:25:00,
2013-02-05 09:30:00,34.3,29.4,29.92,West,274,7.0,9.0,82,0.00,,,0.00,WeatherCatV1.10B1784,2013-02-05 15:30:00,
2013-02-05 09:35:00,34.4,29.2,29.93,NW,318,6.0,9.0,81,0.00,,,0.00,WeatherCatV1.10B1784,2013-02-05 15:35:00,
2013-02-05 09:40:00,34.4,29.2,29.93,NW,324,2.0,11.0,81,0.00,,,0.00,WeatherCatV1.10B1784,2013-02-05 15:40:00,
2013-02-05 09:45:00,34.6,29.4,29.94,West,268,5.0,6.0,81,0.00,,,0.00,WeatherCatV1.10B1784,2013-02-05 15:45:00,
2013-02-05 09:50:00,34.7,29.5,29.94,NW,318,4.0,12.0,81,0.00,,,0.00,WeatherCatV1.10B1784,2013-02-05 15:50:00,
2013-02-05 09:55:00,34.8,29.6,29.94,North,353,7.0,9.0,81,0.00,,,0.00,WeatherCatV1.10B1784,2013-02-05 15:55:00,
2013-02-05 10:00:00,34.8,29.3,29.95,West,270,4.0,10.0,80,0.00,,,0.00,WeatherCatV1.10B1784,2013-02-05 16:00:00,
2013-02-05 10:05:00,35.0,29.5,29.95,NNW,345,5.0,9.0,80,0.00,,,0.00,WeatherCatV1.10B1784,2013-02-05 16:05:00,
2013-02-05 10:10:00,35.2,29.7,29.96,NW,311,3.0,12.0,80,0.00,,,0.00,WeatherCatV1.10B1784,2013-02-05 16:10:00,
2013-02-05 10:15:00,35.3,29.5,29.96,NNW,330,11.0,13.0,79,0.00,,,0.00,WeatherCatV1.10B1784,2013-02-05 16:15:00,
2013-02-05 10:20:00,35.3,29.8,29.96,NW,309,1.0,11.0,80,0.00,,,0.00,WeatherCatV1.10B1784,2013-02-05 16:20:00,
2013-02-05 10:25:00,35.7,29.8,29.96,NNW,343,4.0,8.0,79,0.00,,,0.00,WeatherCatV1.10B1784,2013-02-05 16:25:00,
2013-02-05 10:30:00,35.8,29.9,29.96,WNW,300,3.0,8.0,79,0.00,,,0.00,WeatherCatV1.10B1784,2013-02-05 16:30:00,
2013-02-05 10:35:00,35.8,29.9,29.97,WNW,286,4.0,9.0,79,0.00,,,0.00,WeatherCatV1.10B1784,2013-02-05 16:35:00,
2013-02-05 10:40:00,35.9,30.0,29.97,NNW,330,3.0,12.0,79,0.00,,,0.00,WeatherCatV1.10B1784,2013-02-05 16:40:00,
2013-02-05 10:45:00,36.0,29.8,29.98,WNW,290,4.0,7.0,78,0.00,,,0.00,WeatherCatV1.10B1784,2013-02-05 16:45:00,
2013-02-05 10:50:00,36.3,30.1,29.98,West,266,8.0,10.0,78,0.00,,,0.00,WeatherCatV1.10B1784,2013-02-05 16:50:00,
2013-02-05 10:55:00,36.5,30.0,29.98,NE,43,6.0,7.0,77,0.00,,,0.00,WeatherCatV1.10B1784,2013-02-05 16:55:00,
2013-02-05 11:00:00,36.5,29.7,29.98,NW,316,4.0,15.0,76,0.00,,,0.00,WeatherCatV1.10B1784,2013-02-05 17:00:00,
2013-02-05 11:05:00,36.2,29.7,29.98,NW,308,5.0,11.0,77,0.00,,,0.00,WeatherCatV1.10B1784,2013-02-05 17:05:00,
2013-02-05 11:10:00,36.3,29.8,29.98,NW,313,4.0,12.0,77,0.00,,,0.00,WeatherCatV1.10B1784,2013-02-05 17:10:00,
2013-02-05 11:15:00,36.3,29.8,29.99,WSW,250,6.0,8.0,77,0.00,,,0.00,WeatherCatV1.10B1784,2013-02-05 17:15:00,
2013-02-05 11:20:00,36.4,29.9,29.99,WSW,245,4.0,10.0,77,0.00,,,0.00,WeatherCatV1.10B1784,2013-02-05 17:20:00,
2013-02-05 11:25:00,36.6,29.8,30.00,NNE,14,6.0,9.0,76,0.00,,,0.00,WeatherCatV1.10B1784,2013-02-05 17:25:00,
2013-02-05 11:30:00,36.7,29.9,30.00,West,272,3.0,9.0,76,0.00,,,0.00,WeatherCatV1.10B1784,2013-02-05 17:30:00,
2013-02-05 11:35:00,36.7,30.2,30.00,NNW,345,6.0,9.0,77,0.00,,,0.00,WeatherCatV1.10B1784,2013-02-05 17:35:00,
2013-02-05 11:40:00,36.9,30.1,30.00,NNW,334,3.0,9.0,76,0.00,,,0.00,WeatherCatV1.10B1784,2013-02-05 17:40:00,
2013-02-05 11:45:00,37.0,30.2,30.00,WNW,290,3.0,6.0,76,0.00,,,0.00,WeatherCatV1.10B1784,2013-02-05 17:45:00,
2013-02-05 11:50:00,37.3,30.4,30.00,NW,320,4.0,9.0,76,0.00,,,0.00,WeatherCatV1.10B1784,2013-02-05 17:50:00,
2013-02-05 11:55:00,37.1,29.9,30.00,NW,315,4.0,8.0,75,0.00,,,0.00,WeatherCatV1.10B1784,2013-02-05 17:55:00,
2013-02-05 12:00:00,37.1,30.2,30.00,WNW,301,5.0,11.0,76,0.00,,,0.00,WeatherCatV1.10B1784,2013-02-05 18:00:00,
2013-02-05 12:05:00,37.1,30.2,30.00,NNW,329,7.0,8.0,76,0.00,,,0.00,WeatherCatV1.10B1784,2013-02-05 18:05:00,
2013-02-05 12:10:00,37.4,30.2,30.00,South,172,3.0,6.0,75,0.00,,,0.00,WeatherCatV1.10B1784,2013-02-05 18:10:00,
2013-02-05 12:15:00,37.8,30.6,30.00,WNW,301,5.0,9.0,75,0.00,,,0.00,WeatherCatV1.10B1784,2013-02-05 18:15:00,
2013-02-05 12:20:00,37.7,30.5,30.00,WNW,297,0.0,8.0,75,0.00,,,0.00,WeatherCatV1.10B1784,2013-02-05 18:20:00,
2013-02-05 12:25:00,37.9,31.0,29.99,West,280,2.0,6.0,76,0.00,,,0.00,WeatherCatV1.10B1784,2013-02-05 18:25:00,
2013-02-05 12:30:00,38.2,31.0,30.00,NNW,329,3.0,6.0,75,0.00,,,0.00,WeatherCatV1.10B1784,2013-02-05 18:30:00,
2013-02-05 12:35:00,38.2,30.7,30.00,WSW,252,1.0,8.0,74,0.00,,,0.00,WeatherCatV1.10B1784,2013-02-05 18:35:00,
2013-02-05 12:40:00,38.3,31.1,30.00,NW,313,3.0,11.0,75,0.00,,,0.00,WeatherCatV1.10B1784,2013-02-05 18:40:00,
2013-02-05 12:45:00,38.2,31.0,30.00,North,353,5.0,9.0,75,0.00,,,0.00,WeatherCatV1.10B1784,2013-02-05 18:45:00,
2013-02-05 12:50:00,38.4,30.8,30.00,NW,324,4.0,9.0,74,0.00,,,0.00,WeatherCatV1.10B1784,2013-02-05 18:50:00,
2013-02-05 12:55:00,38.4,30.8,30.00,WNW,286,4.0,7.0,74,0.00,,,0.00,WeatherCatV1.10B1784,2013-02-05 18:55:00,
2013-02-05 13:00:00,38.3,31.1,30.00,West,262,3.0,9.0,75,0.00,,,0.00,WeatherCatV1.10B1784,2013-02-05 19:00:00,
2013-02-05 13:05:00,38.3,31.1,30.00,WNW,284,5.0,11.0,75,0.00,,,0.00,WeatherCatV1.10B1784,2013-02-05 19:05:00,
2013-02-05 13:10:00,38.4,30.8,30.01,WNW,292,3.0,8.0,74,0.00,,,0.00,WeatherCatV1.10B1784,2013-02-05 19:10:00,
2013-02-05 13:15:00,38.1,30.9,30.01,WNW,299,5.0,7.0,75,0.00,,,0.00,WeatherCatV1.10B1784,2013-02-05 19:15:00,
2013-02-05 13:20:00,37.9,30.7,30.01,WNW,293,5.0,9.0,75,0.00,,,0.00,WeatherCatV1.10B1784,2013-02-05 19:20:00,
2013-02-05 13:25:00,37.8,30.6,30.01,NNW,333,4.0,8.0,75,0.00,,,0.00,WeatherCatV1.10B1784,2013-02-05 19:25:00,
2013-02-05 13:30:00,37.8,30.6,30.01,WNW,299,6.0,10.0,75,0.00,,,0.00,WeatherCatV1.10B1784,2013-02-05 19:30:00,
2013-02-05 13:35:00,37.7,30.8,30.01,NW,305,1.0,5.0,76,0.00,,,0.00,WeatherCatV1.10B1784,2013-02-05 19:35:00,
2013-02-05 13:40:00,37.5,30.6,30.01,WNW,297,5.0,13.0,76,0.00,,,0.00,WeatherCatV1.10B1784,2013-02-05 19:40:00,
2013-02-05 13:45:00,36.8,30.3,30.02,WNW,284,4.0,9.0,77,0.00,,,0.00,WeatherCatV1.10B1784,2013-02-05 19:45:00,
2013-02-05 13:50:00,36.5,30.3,30.02,NW,305,4.0,11.0,78,0.00,,,0.00,WeatherCatV1.10B1784,2013-02-05 19:50:00,
2013-02-05 13:55:00,36.2,30.0,30.02,NNW,328,1.0,12.0,78,0.00,,,0.00,WeatherCatV1.10B1784,2013-02-05 19:55:00,
2013-02-05 14:00:00,36.1,29.9,30.02,WNW,282,4.0,9.0,78,0.00,,,0.00,WeatherCatV1.10B1784,2013-02-05 20:00:00,
2013-02-05 14:05:00,35.9,29.7,30.02,North,349,3.0,8.0,78,0.00,,,0.00,WeatherCatV1.10B1784,2013-02-05 20:05:00,
2013-02-05 14:10:00,35.5,29.6,30.02,WNW,300,6.0,8.0,79,0.00,,,0.00,WeatherCatV1.10B1784,2013-02-05 20:10:00,
2013-02-05 14:15:00,35.3,29.5,30.02,NW,323,6.0,9.0,79,0.00,,,0.00,WeatherCatV1.10B1784,2013-02-05 20:15:00,
2013-02-05 14:20:00,35.2,29.4,30.02,WNW,286,3.0,6.0,79,0.00,,,0.00,WeatherCatV1.10B1784,2013-02-05 20:20:00,
2013-02-05 14:25:00,35.2,29.4,30.02,West,267,7.0,7.0,79,0.00,,,0.00,WeatherCatV1.10B1784,2013-02-05 20:25:00,
2013-02-05 14:30:00,34.8,28.7,30.02,NE,56,4.0,6.0,78,0.00,,,0.00,WeatherCatV1.10B1784,2013-02-05 20:30:00,
2013-02-05 14:35:00,34.6,28.5,30.02,NW,326,4.0,7.0,78,0.00,,,0.00,WeatherCatV1.10B1784,2013-02-05 20:35:00,
2013-02-05 14:40:00,34.4,28.6,30.03,NNW,332,6.0,8.0,79,0.00,,,0.00,WeatherCatV1.10B1784,2013-02-05 20:40:00,
2013-02-05 14:45:00,34.3,28.8,30.03,NW,311,2.0,7.0,80,0.00,,,0.00,WeatherCatV1.10B1784,2013-02-05 20:45:00,
2013-02-05 14:50:00,34.3,28.8,30.03,WNW,301,3.0,6.0,80,0.00,,,0.00,WeatherCatV1.10B1784,2013-02-05 20:50:00,
2013-02-05 14:55:00,34.4,28.9,30.03,NW,316,3.0,6.0,80,0.00,,,0.00,WeatherCatV1.10B1784,2013-02-05 20:55:00,
2013-02-05 15:00:00,34.4,28.6,30.03,West,278,4.0,7.0,79,0.00,,,0.00,WeatherCatV1.10B1784,2013-02-05 21:00:00,
2013-02-05 15:05:00,34.3,28.8,30.03,NW,320,5.0,7.0,80,0.00,,,0.00,WeatherCatV1.10B1784,2013-02-05 21:05:00,
2013-02-05 15:10:00,34.2,28.7,30.04,NW,324,1.0,8.0,80,0.00,,,0.00,WeatherCatV1.10B1784,2013-02-05 21:10:00,
2013-02-05 15:15:00,34.2,28.7,30.04,West,281,7.0,8.0,80,0.00,,,0.00,WeatherCatV1.10B1784,2013-02-05 21:15:00,
2013-02-05 15:20:00,34.1,28.6,30.04,NW,319,5.0,6.0,80,0.00,,,0.00,WeatherCatV1.10B1784,2013-02-05 21:20:00,
2013-02-05 15:25:00,34.1,28.6,30.04,NW,306,3.0,5.0,80,0.00,,,0.00,WeatherCatV1.10B1784,2013-02-05 21:25:00,
2013-02-05 15:30:00,34.1,28.6,30.04,NW,311,3.0,6.0,80,0.00,,,0.00,WeatherCatV1.10B1784,2013-02-05 21:30:00,
2013-02-05 15:35:00,34.1,28.6,30.04,NW,313,2.0,3.0,80,0.00,,,0.00,WeatherCatV1.10B1784,2013-02-05 21:35:00,
2013-02-05 15:40:00,34.0,28.2,30.04,NW,312,1.0,6.0,79,0.00,,,0.00,WeatherCatV1.10B1784,2013-02-05 21:40:00,
2013-02-05 15:45:00,34.1,28.6,30.04,WNW,297,3.0,4.0,80,0.00,,,0.00,WeatherCatV1.10B1784,2013-02-05 21:45:00,
2013-02-05 15:50:00,34.0,28.5,30.04,WNW,282,2.0,4.0,80,0.00,,,0.00,WeatherCatV1.10B1784,2013-02-05 21:50:00,
2013-02-05 15:55:00,34.0,28.5,30.04,NW,310,3.0,5.0,80,0.00,,,0.00,WeatherCatV1.10B1784,2013-02-05 21:55:00,
2013-02-05 16:00:00,34.1,28.6,30.04,NW,310,0.0,4.0,80,0.00,,,0.00,WeatherCatV1.10B1784,2013-02-05 22:00:00,
2013-02-05 16:05:00,34.2,28.7,30.04,NW,311,3.0,3.0,80,0.00,,,0.00,WeatherCatV1.10B1784,2013-02-05 22:05:00,
2013-02-05 16:10:00,34.2,28.7,30.04,NW,317,3.0,6.0,80,0.00,,,0.00,WeatherCatV1.10B1784,2013-02-05 22:10:00,
2013-02-05 16:15:00,34.1,28.3,30.04,NNW,335,2.0,3.0,79,0.00,,,0.00,WeatherCatV1.10B1784,2013-02-05 22:15:00,
2013-02-05 16:20:00,34.2,28.7,30.04,North,351,1.0,5.0,80,0.00,,,0.00,WeatherCatV1.10B1784,2013-02-05 22:20:00,
2013-02-05 16:25:00,34.1,28.6,30.04,NW,307,4.0,4.0,80,0.00,,,0.00,WeatherCatV1.10B1784,2013-02-05 22:25:00,
2013-02-05 16:30:00,34.1,28.3,30.04,NW,314,3.0,3.0,79,0.00,,,0.00,WeatherCatV1.10B1784,2013-02-05 22:30:00,
2013-02-05 16:35:00,34.1,28.0,30.04,WNW,289,3.0,5.0,78,0.00,,,0.00,WeatherCatV1.10B1784,2013-02-05 22:35:00,
2013-02-05 16:40:00,34.0,27.9,30.04,NW,307,3.0,5.0,78,0.00,,,0.00,WeatherCatV1.10B1784,2013-02-05 22:40:00,
2013-02-05 16:45:00,34.0,27.9,30.03,NNW,328,2.0,3.0,78,0.00,,,0.00,WeatherCatV1.10B1784,2013-02-05 22:45:00,
2013-02-05 16:50:00,34.1,28.0,30.04,NNE,24,3.0,3.0,78,0.00,,,0.00,WeatherCatV1.10B1784,2013-02-05 22:50:00,
2013-02-05 16:55:00,34.1,28.0,30.04,WNW,296,3.0,5.0,78,0.00,,,0.00,WeatherCatV1.10B1784,2013-02-05 22:55:00,
2013-02-05 17:00:00,33.9,27.8,30.04,NW,319,2.0,4.0,78,0.00,,,0.00,WeatherCatV1.10B1784,2013-02-05 23:00:00,
2013-02-05 17:05:00,33.8,28.0,30.04,NW,314,1.0,2.0,79,0.00,,,0.00,WeatherCatV1.10B1784,2013-02-05 23:05:00,
2013-02-05 17:10:00,33.7,27.9,30.04,NNW,338,0.0,3.0,79,0.00,,,0.00,WeatherCatV1.10B1784,2013-02-05 23:10:00,
2013-02-05 17:15:00,33.5,28.0,30.04,NNW,328,0.0,3.0,80,0.00,,,0.00,WeatherCatV1.10B1784,2013-02-05 23:15:00,
2013-02-05 17:20:00,33.4,27.9,30.04,NNW,328,0.0,1.0,80,0.00,,,0.00,WeatherCatV1.10B1784,2013-02-05 23:20:00,
2013-02-05 17:25:00,33.1,27.6,30.04,NNW,328,0.0,1.0,80,0.00,,,0.00,WeatherCatV1.10B1784,2013-02-05 23:25:00,
2013-02-05 17:30:00,32.9,27.7,30.05,NNW,328,0.0,2.0,81,0.00,,,0.00,WeatherCatV1.10B1784,2013-02-05 23:30:00,
2013-02-05 17:35:00,32.7,27.5,30.05,NW,318,1.0,2.0,81,0.00,,,0.00,WeatherCatV1.10B1784,2013-02-05 23:35:00,
2013-02-05 17:40:00,32.4,27.2,30.05,NW,318,0.0,0.0,81,0.00,,,0.00,WeatherCatV1.10B1784,2013-02-05 23:40:00,
2013-02-05 17:45:00,32.2,27.0,30.05,NW,318,0.0,1.0,81,0.00,,,0.00,WeatherCatV1.10B1784,2013-02-05 23:45:00,
2013-02-05 17:50:00,31.9,26.7,30.05,NW,318,0.0,3.0,81,0.00,,,0.00,WeatherCatV1.10B1784,2013-02-05 23:50:00,
2013-02-05 17:55:00,31.7,26.8,30.05,NW,318,0.0,0.0,82,0.00,,,0.00,WeatherCatV1.10B1784,2013-02-05 23:55:00,
2013-02-05 18:00:00,31.5,26.7,30.06,NW,318,0.0,0.0,82,0.00,,,0.00,WeatherCatV1.10B1784,2013-02-06 00:00:00,
2013-02-05 18:05:00,31.2,26.4,30.05,NW,318,0.0,0.0,82,0.00,,,0.00,WeatherCatV1.10B1784,2013-02-06 00:05:00,
2013-02-05 18:10:00,30.9,26.1,30.05,NW,318,0.0,0.0,82,0.00,,,0.00,WeatherCatV1.10B1784,2013-02-06 00:10:00,
2013-02-05 18:15:00,30.6,25.8,30.06,NW,318,0.0,0.0,82,0.00,,,0.00,WeatherCatV1.10B1784,2013-02-06 00:15:00,
2013-02-05 18:20:00,30.3,25.8,30.05,NW,318,0.0,0.0,83,0.00,,,0.00,WeatherCatV1.10B1784,2013-02-06 00:20:00,
2013-02-05 18:25:00,30.1,25.6,30.06,NW,318,0.0,0.0,83,0.00,,,0.00,WeatherCatV1.10B1784,2013-02-06 00:25:00,
2013-02-05 18:30:00,29.9,25.7,30.05,NW,318,0.0,0.0,84,0.00,,,0.00,WeatherCatV1.10B1784,2013-02-06 00:30:00,
2013-02-05 18:35:00,29.7,25.8,30.06,NW,318,0.0,0.0,85,0.00,,,0.00,WeatherCatV1.10B1784,2013-02-06 00:35:00,
2013-02-05 18:40:00,29.6,25.7,30.06,NW,318,0.0,0.0,85,0.00,,,0.00,WeatherCatV1.10B1784,2013-02-06 00:40:00,
2013-02-05 18:45:00,29.5,25.8,30.06,NW,318,0.0,0.0,86,0.00,,,0.00,WeatherCatV1.10B1784,2013-02-06 00:45:00,
2013-02-05 18:50:00,29.5,25.8,30.06,NW,318,0.0,0.0,86,0.00,,,0.00,WeatherCatV1.10B1784,2013-02-06 00:50:00,
2013-02-05 18:55:00,29.4,25.7,30.06,NW,318,0.0,0.0,86,0.00,,,0.00,WeatherCatV1.10B1784,2013-02-06 00:55:00,
2013-02-05 19:00:00,29.3,25.6,30.05,NW,318,0.0,0.0,86,0.00,,,0.00,WeatherCatV1.10B1784,2013-02-06 01:00:00,
2013-02-05 19:05:00,29.1,25.7,30.05,NW,318,0.0,0.0,87,0.00,,,0.00,WeatherCatV1.10B1784,2013-02-06 01:05:00,
2013-02-05 19:10:00,29.0,25.6,30.06,NW,318,0.0,0.0,87,0.00,,,0.00,WeatherCatV1.10B1784,2013-02-06 01:10:00,
2013-02-05 19:15:00,28.8,25.4,30.05,NW,318,0.0,0.0,87,0.00,,,0.00,WeatherCatV1.10B1784,2013-02-06 01:15:00,
2013-02-05 19:20:00,28.6,25.2,30.05,NW,318,0.0,0.0,87,0.00,,,0.00,WeatherCatV1.10B1784,2013-02-06 01:20:00,
2013-02-05 19:25:00,28.4,25.3,30.06,NW,318,0.0,0.0,88,0.00,,,0.00,WeatherCatV1.10B1784,2013-02-06 01:25:00,
2013-02-05 19:30:00,28.3,25.5,30.06,NW,318,0.0,0.0,89,0.00,,,0.00,WeatherCatV1.10B1784,2013-02-06 01:30:00,
2013-02-05 19:35:00,28.2,25.4,30.06,NW,318,0.0,0.0,89,0.00,,,0.00,WeatherCatV1.10B1784,2013-02-06 01:35:00,
2013-02-05 19:40:00,28.2,25.4,30.06,NW,318,0.0,0.0,89,0.00,,,0.00,WeatherCatV1.10B1784,2013-02-06 01:40:00,
2013-02-05 19:45:00,28.1,25.3,30.06,NW,318,0.0,0.0,89,0.00,,,0.00,WeatherCatV1.10B1784,2013-02-06 01:45:00,
2013-02-05 19:50:00,28.1,25.6,30.07,NW,318,0.0,0.0,90,0.00,,,0.00,WeatherCatV1.10B1784,2013-02-06 01:50:00,
2013-02-05 19:55:00,28.3,26.0,30.07,NW,318,0.0,0.0,91,0.00,,,0.00,WeatherCatV1.10B1784,2013-02-06 01:55:00,
2013-02-05 20:00:00,28.3,26.0,30.06,NW,318,0.0,0.0,91,0.00,,,0.00,WeatherCatV1.10B1784,2013-02-06 02:00:00,
2013-02-05 20:05:00,28.3,25.8,30.06,NW,318,0.0,0.0,90,0.00,,,0.00,WeatherCatV1.10B1784,2013-02-06 02:05:00,
2013-02-05 20:10:00,28.2,25.7,30.06,NW,318,0.0,0.0,90,0.00,,,0.00,WeatherCatV1.10B1784,2013-02-06 02:10:00,
2013-02-05 20:15:00,28.1,25.6,30.06,NW,318,0.0,0.0,90,0.00,,,0.00,WeatherCatV1.10B1784,2013-02-06 02:15:00,
2013-02-05 20:20:00,27.9,25.4,30.06,NW,318,0.0,0.0,90,0.00,,,0.00,WeatherCatV1.10B1784,2013-02-06 02:20:00,
2013-02-05 20:25:00,27.9,25.4,30.06,NW,318,0.0,0.0,90,0.00,,,0.00,WeatherCatV1.10B1784,2013-02-06 02:25:00,
2013-02-05 20:30:00,27.7,25.2,30.06,NW,318,0.0,0.0,90,0.00,,,0.00,WeatherCatV1.10B1784,2013-02-06 02:30:00,
2013-02-05 20:35:00,27.5,25.0,30.06,NW,318,0.0,0.0,90,0.00,,,0.00,WeatherCatV1.10B1784,2013-02-06 02:35:00,
2013-02-05 20:40:00,27.2,24.4,30.06,NW,318,1.0,2.0,89,0.00,,,0.00,WeatherCatV1.10B1784,2013-02-06 02:40:00,
2013-02-05 20:45:00,26.8,24.3,30.06,NW,318,0.0,0.0,90,0.00,,,0.00,WeatherCatV1.10B1784,2013-02-06 02:45:00,
2013-02-05 20:50:00,26.5,24.0,30.06,NW,318,0.0,0.0,90,0.00,,,0.00,WeatherCatV1.10B1784,2013-02-06 02:50:00,
2013-02-05 20:55:00,26.3,23.8,30.06,NW,318,0.0,0.0,90,0.00,,,0.00,WeatherCatV1.10B1784,2013-02-06 02:55:00,
2013-02-05 21:00:00,26.1,23.8,30.06,NW,318,0.0,0.0,91,0.00,,,0.00,WeatherCatV1.10B1784,2013-02-06 03:00:00,
2013-02-05 21:05:00,26.1,24.1,30.07,NW,318,0.0,0.0,92,0.00,,,0.00,WeatherCatV1.10B1784,2013-02-06 03:05:00,
2013-02-05 21:10:00,26.0,23.7,30.07,NW,318,0.0,0.0,91,0.00,,,0.00,WeatherCatV1.10B1784,2013-02-06 03:10:00,
2013-02-05 21:15:00,25.7,23.4,30.06,NW,318,0.0,0.0,91,0.00,,,0.00,WeatherCatV1.10B1784,2013-02-06 03:15:00,
2013-02-05 21:20:00,25.5,23.2,30.06,NW,318,0.0,0.0,91,0.00,,,0.00,WeatherCatV1.10B1784,2013-02-06 03:20:00,
2013-02-05 21:25:00,25.2,22.9,30.06,NW,318,0.0,0.0,91,0.00,,,0.00,WeatherCatV1.10B1784,2013-02-06 03:25:00,
2013-02-05 21:30:00,25.1,23.1,30.07,NW,318,0.0,0.0,92,0.00,,,0.00,WeatherCatV1.10B1784,2013-02-06 03:30:00,
2013-02-05 21:35:00,25.0,23.0,30.07,NW,318,0.0,0.0,92,0.00,,,0.00,WeatherCatV1.10B1784,2013-02-06 03:35:00,
2013-02-05 21:40:00,24.8,22.8,30.07,NW,318,0.0,0.0,92,0.00,,,0.00,WeatherCatV1.10B1784,2013-02-06 03:40:00,
2013-02-05 21:45:00,24.6,22.4,30.07,NW,318,0.0,0.0,91,0.00,,,0.00,WeatherCatV1.10B1784,2013-02-06 03:45:00,
2013-02-05 21:50:00,24.3,22.1,30.07,NW,318,0.0,0.0,91,0.00,,,0.00,WeatherCatV1.10B1784,2013-02-06 03:50:00,
2013-02-05 21:55:00,24.1,21.9,30.07,NW,318,0.0,0.0,91,0.00,,,0.00,WeatherCatV1.10B1784,2013-02-06 03:55:00,
2013-02-05 22:00:00,24.1,22.4,30.07,NW,318,0.0,0.0,93,0.00,,,0.00,WeatherCatV1.10B1784,2013-02-06 04:00:00,
2013-02-05 22:05:00,24.2,22.5,30.07,NW,318,0.0,0.0,93,0.00,,,0.00,WeatherCatV1.10B1784,2013-02-06 04:05:00,
2013-02-05 22:10:00,24.1,22.1,30.07,NW,318,0.0,0.0,92,0.00,,,0.00,WeatherCatV1.10B1784,2013-02-06 04:10:00,
2013-02-05 22:15:00,23.9,21.9,30.07,NW,318,0.0,0.0,92,0.00,,,0.00,WeatherCatV1.10B1784,2013-02-06 04:15:00,
2013-02-05 22:20:00,23.8,21.8,30.07,NW,318,0.0,0.0,92,0.00,,,0.00,WeatherCatV1.10B1784,2013-02-06 04:20:00,
2013-02-05 22:25:00,23.6,21.6,30.07,NW,318,0.0,0.0,92,0.00,,,0.00,WeatherCatV1.10B1784,2013-02-06 04:25:00,
2013-02-05 22:30:00,23.6,21.9,30.07,NW,318,0.0,0.0,93,0.00,,,0.00,WeatherCatV1.10B1784,2013-02-06 04:30:00,
2013-02-05 22:35:00,23.5,21.5,30.07,NW,318,0.0,0.0,92,0.00,,,0.00,WeatherCatV1.10B1784,2013-02-06 04:35:00,
2013-02-05 22:40:00,23.4,21.7,30.07,NW,318,0.0,0.0,93,0.00,,,0.00,WeatherCatV1.10B1784,2013-02-06 04:40:00,
2013-02-05 22:45:00,23.4,21.7,30.06,NW,318,0.0,0.0,93,0.00,,,0.00,WeatherCatV1.10B1784,2013-02-06 04:45:00,
2013-02-05 22:50:00,23.3,21.6,30.06,NW,320,0.0,0.0,93,0.00,,,0.00,WeatherCatV1.10B1784,2013-02-06 04:50:00,
2013-02-05 22:55:00,23.2,21.5,30.06,NW,320,0.0,0.0,93,0.00,,,0.00,WeatherCatV1.10B1784,2013-02-06 04:55:00,
2013-02-05 23:00:00,23.2,21.5,30.06,NW,320,0.0,0.0,93,0.00,,,0.00,WeatherCatV1.10B1784,2013-02-06 05:00:00,
2013-02-05 23:05:00,23.1,21.4,30.06,NW,320,0.0,0.0,93,0.00,,,0.00,WeatherCatV1.10B1784,2013-02-06 05:05:00,
2013-02-05 23:10:00,23.0,21.3,30.05,NW,320,0.0,1.0,93,0.00,,,0.00,WeatherCatV1.10B1784,2013-02-06 05:10:00,
2013-02-05 23:15:00,23.0,21.3,30.05,NW,320,0.0,0.0,93,0.00,,,0.00,WeatherCatV1.10B1784,2013-02-06 05:15:00,
2013-02-05 23:20:00,23.2,21.7,30.05,NW,320,0.0,0.0,94,0.00,,,0.00,WeatherCatV1.10B1784,2013-02-06 05:20:00,
2013-02-05 23:25:00,23.3,21.6,30.05,NW,320,0.0,0.0,93,0.00,,,0.00,WeatherCatV1.10B1784,2013-02-06 05:25:00,
2013-02-05 23:30:00,23.2,21.7,30.05,NW,320,0.0,1.0,94,0.00,,,0.00,WeatherCatV1.10B1784,2013-02-06 05:30:00,
2013-02-05 23:35:00,23.2,21.7,30.04,NW,320,0.0,0.0,94,0.00,,,0.00,WeatherCatV1.10B1784,2013-02-06 05:35:00,
2013-02-05 23:40:00,23.2,21.7,30.04,NW,320,0.0,0.0,94,0.00,,,0.00,WeatherCatV1.10B1784,2013-02-06 05:40:00,
2013-02-05 23:45:00,23.3,21.8,30.03,NW,320,0.0,0.0,94,0.00,,,0.00,WeatherCatV1.10B1784,2013-02-06 05:45:00,
2013-02-05 23:50:00,23.5,22.0,30.04,NW,320,0.0,0.0,94,0.00,,,0.00,WeatherCatV1.10B1784,2013-02-06 05:50:00,
2013-02-05 23:55:00,23.5,22.0,30.03,NW,320,0.0,0.0,94,0.00,,,0.00,WeatherCatV1.10B1784,2013-02-06 05:55:00,